2ND7 weather

Johnson Airport
Newburg, North Dakota, United States

Public forecast

Using degrees Fahrenheit for public forecast. Weather courtesy of forecast.io.

METAR (pilot weather report)

Closest report is Minot Air Force Base, 29.6 nm (54.8 km) SW. Retrieved 2019/09/23 09:56 UTC (6 minutes ago):

KMIB 230956Z AUTO 25007KT 10SM CLR 12/08 A2982 RMK AO2 SLP103 T01170080 $

TAF (pilot weather forecast)

Closest forecast is Minot Air Force Base, 29.6 nm (54.8 km) SW. Retrieved 2019/09/23 09:03 UTC (59 minutes ago):

TAF KMIB 230900Z 2309/2415 23009KT 9999 SKC QNH2980INS BECMG 2318/2319 24012KT 9999 SKC QNH2977INS BECMG 2405/2406 25012KT 9999 SCT050 WS020/28030KT QNH2969INS BECMG 2411/2412 27015G25KT 9999 SCT050 BKN070 QNH2959INS TX25/2322Z TN10/2313Z